sensor_id;sensor_type;location;lat;lon;timestamp;P1;durP1;ratioP1;P2;durP2;ratioP2
77040;SDS011;65974;42.664;23.264;2023-05-10T00:00:32;9.88;;;6.47;;
77040;SDS011;65974;42.664;23.264;2023-05-10T00:02:58;10.35;;;6.78;;
77040;SDS011;65974;42.664;23.264;2023-05-10T00:05:23;16.17;;;6.32;;
77040;SDS011;65974;42.664;23.264;2023-05-10T00:07:49;11.73;;;5.97;;
77040;SDS011;65974;42.664;23.264;2023-05-10T00:10:14;9.57;;;6.28;;
77040;SDS011;65974;42.664;23.264;2023-05-10T00:12:40;13.13;;;6.57;;
77040;SDS011;65974;42.664;23.264;2023-05-10T00:15:06;9.95;;;6.30;;
77040;SDS011;65974;42.664;23.264;2023-05-10T00:17:32;10.80;;;5.53;;
77040;SDS011;65974;42.664;23.264;2023-05-10T00:19:57;10.98;;;7.35;;
77040;SDS011;65974;42.664;23.264;2023-05-10T00:22:23;10.57;;;5.72;;
77040;SDS011;65974;42.664;23.264;2023-05-10T00:24:48;14.55;;;7.18;;
77040;SDS011;65974;42.664;23.264;2023-05-10T00:27:14;12.23;;;7.43;;
77040;SDS011;65974;42.664;23.264;2023-05-10T00:29:39;11.63;;;6.85;;
77040;SDS011;65974;42.664;23.264;2023-05-10T00:32:04;10.40;;;6.25;;
77040;SDS011;65974;42.664;23.264;2023-05-10T00:34:31;12.52;;;6.85;;
77040;SDS011;65974;42.664;23.264;2023-05-10T00:36:57;11.63;;;6.50;;
77040;SDS011;65974;42.664;23.264;2023-05-10T00:39:22;13.82;;;6.85;;
77040;SDS011;65974;42.664;23.264;2023-05-10T00:41:47;13.13;;;7.65;;
77040;SDS011;65974;42.664;23.264;2023-05-10T00:44:13;12.82;;;8.38;;
77040;SDS011;65974;42.664;23.264;2023-05-10T00:46:38;11.32;;;7.18;;
77040;SDS011;65974;42.664;23.264;2023-05-10T00:49:04;11.23;;;6.55;;
77040;SDS011;65974;42.664;23.264;2023-05-10T00:51:30;11.02;;;6.95;;
77040;SDS011;65974;42.664;23.264;2023-05-10T00:53:56;11.70;;;7.28;;
77040;SDS011;65974;42.664;23.264;2023-05-10T00:56:21;11.73;;;7.05;;
77040;SDS011;65974;42.664;23.264;2023-05-10T00:58:49;11.60;;;7.28;;
77040;SDS011;65974;42.664;23.264;2023-05-10T01:01:15;12.88;;;7.18;;
77040;SDS011;65974;42.664;23.264;2023-05-10T01:03:41;10.93;;;7.00;;
77040;SDS011;65974;42.664;23.264;2023-05-10T01:06:07;9.80;;;5.60;;
77040;SDS011;65974;42.664;23.264;2023-05-10T01:08:32;9.82;;;7.68;;
77040;SDS011;65974;42.664;23.264;2023-05-10T01:10:58;15.30;;;8.05;;
77040;SDS011;65974;42.664;23.264;2023-05-10T01:13:33;11.95;;;7.95;;
77040;SDS011;65974;42.664;23.264;2023-05-10T01:16:02;11.40;;;6.75;;
77040;SDS011;65974;42.664;23.264;2023-05-10T01:18:29;13.57;;;7.35;;
77040;SDS011;65974;42.664;23.264;2023-05-10T01:35:22;12.90;;;7.60;;
77040;SDS011;65974;42.664;23.264;2023-05-10T01:38:08;11.68;;;7.78;;
77040;SDS011;65974;42.664;23.264;2023-05-10T01:43:42;11.55;;;6.80;;
77040;SDS011;65974;42.664;23.264;2023-05-10T01:46:17;10.90;;;6.32;;
77040;SDS011;65974;42.664;23.264;2023-05-10T01:48:54;13.00;;;6.78;;
77040;SDS011;65974;42.664;23.264;2023-05-10T01:51:26;11.15;;;6.65;;
77040;SDS011;65974;42.664;23.264;2023-05-10T01:53:58;10.73;;;5.72;;
77040;SDS011;65974;42.664;23.264;2023-05-10T01:56:26;8.98;;;5.38;;
77040;SDS011;65974;42.664;23.264;2023-05-10T01:58:55;7.95;;;5.10;;
77040;SDS011;65974;42.664;23.264;2023-05-10T02:01:22;10.48;;;5.45;;
77040;SDS011;65974;42.664;23.264;2023-05-10T02:03:51;4.35;;;3.70;;
77040;SDS011;65974;42.664;23.264;2023-05-10T02:06:17;8.15;;;5.70;;
77040;SDS011;65974;42.664;23.264;2023-05-10T02:08:45;8.73;;;5.40;;
77040;SDS011;65974;42.664;23.264;2023-05-10T02:11:13;9.05;;;6.32;;
77040;SDS011;65974;42.664;23.264;2023-05-10T02:13:39;8.52;;;5.45;;
77040;SDS011;65974;42.664;23.264;2023-05-10T02:16:07;8.82;;;6.18;;
77040;SDS011;65974;42.664;23.264;2023-05-10T02:18:33;8.32;;;5.60;;
77040;SDS011;65974;42.664;23.264;2023-05-10T02:20:59;6.53;;;4.55;;
77040;SDS011;65974;42.664;23.264;2023-05-10T02:23:27;6.00;;;4.72;;
77040;SDS011;65974;42.664;23.264;2023-05-10T02:25:53;8.63;;;5.15;;
77040;SDS011;65974;42.664;23.264;2023-05-10T02:28:21;7.15;;;5.18;;
77040;SDS011;65974;42.664;23.264;2023-05-10T02:30:49;8.43;;;5.05;;
77040;SDS011;65974;42.664;23.264;2023-05-10T02:33:16;8.82;;;5.85;;
77040;SDS011;65974;42.664;23.264;2023-05-10T02:35:43;9.52;;;5.13;;
77040;SDS011;65974;42.664;23.264;2023-05-10T02:38:09;5.63;;;3.72;;
77040;SDS011;65974;42.664;23.264;2023-05-10T02:40:36;8.30;;;4.97;;
77040;SDS011;65974;42.664;23.264;2023-05-10T02:43:03;9.35;;;5.93;;
77040;SDS011;65974;42.664;23.264;2023-05-10T02:45:31;5.78;;;4.30;;
77040;SDS011;65974;42.664;23.264;2023-05-10T02:47:57;7.00;;;3.90;;
77040;SDS011;65974;42.664;23.264;2023-05-10T02:50:24;6.78;;;3.80;;
77040;SDS011;65974;42.664;23.264;2023-05-10T02:52:53;5.07;;;3.28;;
77040;SDS011;65974;42.664;23.264;2023-05-10T02:55:22;8.30;;;5.00;;
77040;SDS011;65974;42.664;23.264;2023-05-10T02:57:56;9.65;;;6.60;;
77040;SDS011;65974;42.664;23.264;2023-05-10T03:00:24;15.68;;;6.93;;
77040;SDS011;65974;42.664;23.264;2023-05-10T03:02:49;8.98;;;5.22;;
77040;SDS011;65974;42.664;23.264;2023-05-10T03:05:15;10.40;;;5.43;;
77040;SDS011;65974;42.664;23.264;2023-05-10T03:07:40;9.48;;;3.22;;
77040;SDS011;65974;42.664;23.264;2023-05-10T03:10:06;9.23;;;5.93;;
77040;SDS011;65974;42.664;23.264;2023-05-10T03:15:25;10.00;;;4.80;;
77040;SDS011;65974;42.664;23.264;2023-05-10T03:20:48;10.10;;;4.38;;
77040;SDS011;65974;42.664;23.264;2023-05-10T03:25:55;10.05;;;6.22;;
77040;SDS011;65974;42.664;23.264;2023-05-10T03:28:21;9.10;;;5.88;;
77040;SDS011;65974;42.664;23.264;2023-05-10T03:30:50;5.63;;;4.03;;
77040;SDS011;65974;42.664;23.264;2023-05-10T03:33:17;8.98;;;5.55;;
77040;SDS011;65974;42.664;23.264;2023-05-10T03:35:43;8.43;;;5.32;;
77040;SDS011;65974;42.664;23.264;2023-05-10T03:38:10;8.07;;;5.05;;
77040;SDS011;65974;42.664;23.264;2023-05-10T03:40:36;8.35;;;5.40;;
77040;SDS011;65974;42.664;23.264;2023-05-10T03:43:02;8.95;;;6.03;;
77040;SDS011;65974;42.664;23.264;2023-05-10T03:45:27;10.23;;;5.53;;
77040;SDS011;65974;42.664;23.264;2023-05-10T03:47:53;9.63;;;6.05;;
77040;SDS011;65974;42.664;23.264;2023-05-10T03:50:19;6.97;;;4.82;;
77040;SDS011;65974;42.664;23.264;2023-05-10T03:52:45;7.95;;;4.28;;
77040;SDS011;65974;42.664;23.264;2023-05-10T03:55:10;8.02;;;5.10;;
77040;SDS011;65974;42.664;23.264;2023-05-10T03:57:36;9.15;;;5.70;;
77040;SDS011;65974;42.664;23.264;2023-05-10T04:00:02;8.15;;;4.07;;
77040;SDS011;65974;42.664;23.264;2023-05-10T04:02:28;8.02;;;4.63;;
77040;SDS011;65974;42.664;23.264;2023-05-10T04:04:54;7.05;;;4.15;;
77040;SDS011;65974;42.664;23.264;2023-05-10T04:07:20;8.70;;;4.88;;
77040;SDS011;65974;42.664;23.264;2023-05-10T04:09:46;8.13;;;5.30;;
77040;SDS011;65974;42.664;23.264;2023-05-10T04:12:12;8.30;;;5.47;;
77040;SDS011;65974;42.664;23.264;2023-05-10T04:14:37;9.38;;;5.30;;
77040;SDS011;65974;42.664;23.264;2023-05-10T04:17:03;8.88;;;5.28;;
77040;SDS011;65974;42.664;23.264;2023-05-10T04:19:29;10.48;;;6.40;;
77040;SDS011;65974;42.664;23.264;2023-05-10T04:21:55;8.63;;;5.65;;
77040;SDS011;65974;42.664;23.264;2023-05-10T04:24:20;5.78;;;3.88;;
77040;SDS011;65974;42.664;23.264;2023-05-10T04:26:46;9.35;;;5.93;;
77040;SDS011;65974;42.664;23.264;2023-05-10T04:29:11;10.73;;;6.35;;
77040;SDS011;65974;42.664;23.264;2023-05-10T04:31:36;9.20;;;5.82;;
77040;SDS011;65974;42.664;23.264;2023-05-10T04:34:02;6.32;;;4.15;;
77040;SDS011;65974;42.664;23.264;2023-05-10T04:36:28;7.82;;;4.65;;
77040;SDS011;65974;42.664;23.264;2023-05-10T04:38:53;7.03;;;4.60;;
77040;SDS011;65974;42.664;23.264;2023-05-10T04:41:19;10.95;;;5.50;;
77040;SDS011;65974;42.664;23.264;2023-05-10T04:43:45;12.77;;;6.55;;
77040;SDS011;65974;42.664;23.264;2023-05-10T04:46:11;6.55;;;4.28;;
77040;SDS011;65974;42.664;23.264;2023-05-10T04:48:36;12.45;;;7.65;;
77040;SDS011;65974;42.664;23.264;2023-05-10T04:51:02;10.70;;;6.90;;
77040;SDS011;65974;42.664;23.264;2023-05-10T04:53:28;9.10;;;5.40;;
77040;SDS011;65974;42.664;23.264;2023-05-10T04:55:54;8.77;;;5.75;;
77040;SDS011;65974;42.664;23.264;2023-05-10T04:58:20;3.95;;;3.20;;
77040;SDS011;65974;42.664;23.264;2023-05-10T05:00:45;9.40;;;6.47;;
77040;SDS011;65974;42.664;23.264;2023-05-10T05:03:11;10.05;;;6.05;;
77040;SDS011;65974;42.664;23.264;2023-05-10T05:05:36;12.63;;;6.15;;
77040;SDS011;65974;42.664;23.264;2023-05-10T05:08:02;16.55;;;6.55;;
77040;SDS011;65974;42.664;23.264;2023-05-10T05:10:27;7.40;;;5.47;;
77040;SDS011;65974;42.664;23.264;2023-05-10T05:12:53;10.77;;;6.25;;
77040;SDS011;65974;42.664;23.264;2023-05-10T05:15:18;8.38;;;5.35;;
77040;SDS011;65974;42.664;23.264;2023-05-10T05:17:44;11.70;;;6.88;;
77040;SDS011;65974;42.664;23.264;2023-05-10T05:20:09;8.40;;;5.85;;
77040;SDS011;65974;42.664;23.264;2023-05-10T05:22:36;11.35;;;6.45;;
77040;SDS011;65974;42.664;23.264;2023-05-10T05:25:02;10.48;;;6.75;;
77040;SDS011;65974;42.664;23.264;2023-05-10T05:27:28;12.23;;;7.20;;
77040;SDS011;65974;42.664;23.264;2023-05-10T05:29:54;13.35;;;7.18;;
77040;SDS011;65974;42.664;23.264;2023-05-10T05:32:23;11.25;;;7.22;;
77040;SDS011;65974;42.664;23.264;2023-05-10T05:34:49;12.68;;;8.30;;
77040;SDS011;65974;42.664;23.264;2023-05-10T05:37:15;12.68;;;7.25;;
77040;SDS011;65974;42.664;23.264;2023-05-10T05:39:42;14.27;;;8.07;;
77040;SDS011;65974;42.664;23.264;2023-05-10T05:42:11;12.52;;;6.65;;
77040;SDS011;65974;42.664;23.264;2023-05-10T05:44:38;16.38;;;7.43;;
77040;SDS011;65974;42.664;23.264;2023-05-10T05:47:03;12.40;;;7.18;;
77040;SDS011;65974;42.664;23.264;2023-05-10T05:49:30;15.10;;;8.48;;
77040;SDS011;65974;42.664;23.264;2023-05-10T05:51:59;18.00;;;8.95;;
77040;SDS011;65974;42.664;23.264;2023-05-10T05:54:25;14.95;;;7.88;;
77040;SDS011;65974;42.664;23.264;2023-05-10T05:56:53;12.50;;;8.18;;
77040;SDS011;65974;42.664;23.264;2023-05-10T05:59:20;13.85;;;7.82;;
77040;SDS011;65974;42.664;23.264;2023-05-10T06:01:45;13.63;;;7.03;;
77040;SDS011;65974;42.664;23.264;2023-05-10T06:04:11;9.05;;;4.60;;
77040;SDS011;65974;42.664;23.264;2023-05-10T06:06:37;14.73;;;8.13;;
77040;SDS011;65974;42.664;23.264;2023-05-10T06:09:02;15.80;;;8.13;;
77040;SDS011;65974;42.664;23.264;2023-05-10T06:11:28;15.55;;;8.30;;
77040;SDS011;65974;42.664;23.264;2023-05-10T06:13:53;14.05;;;7.95;;
77040;SDS011;65974;42.664;23.264;2023-05-10T06:16:19;15.95;;;8.18;;
77040;SDS011;65974;42.664;23.264;2023-05-10T06:18:44;16.33;;;9.32;;
77040;SDS011;65974;42.664;23.264;2023-05-10T06:21:10;14.23;;;8.90;;
77040;SDS011;65974;42.664;23.264;2023-05-10T06:23:35;20.27;;;9.75;;
77040;SDS011;65974;42.664;23.264;2023-05-10T06:26:01;18.58;;;10.45;;
77040;SDS011;65974;42.664;23.264;2023-05-10T06:28:26;19.95;;;10.65;;
77040;SDS011;65974;42.664;23.264;2023-05-10T06:30:51;15.43;;;9.45;;
77040;SDS011;65974;42.664;23.264;2023-05-10T06:33:17;19.17;;;10.00;;
77040;SDS011;65974;42.664;23.264;2023-05-10T06:35:42;20.13;;;10.25;;
77040;SDS011;65974;42.664;23.264;2023-05-10T06:38:08;16.70;;;8.80;;
77040;SDS011;65974;42.664;23.264;2023-05-10T06:40:33;18.52;;;9.10;;
77040;SDS011;65974;42.664;23.264;2023-05-10T06:42:58;14.10;;;7.30;;
77040;SDS011;65974;42.664;23.264;2023-05-10T06:45:24;16.55;;;8.82;;
77040;SDS011;65974;42.664;23.264;2023-05-10T06:47:51;15.43;;;9.02;;
77040;SDS011;65974;42.664;23.264;2023-05-10T06:50:16;16.08;;;8.73;;
77040;SDS011;65974;42.664;23.264;2023-05-10T06:52:42;17.80;;;8.90;;
77040;SDS011;65974;42.664;23.264;2023-05-10T06:55:07;15.05;;;9.15;;
77040;SDS011;65974;42.664;23.264;2023-05-10T06:57:33;14.35;;;7.88;;
77040;SDS011;65974;42.664;23.264;2023-05-10T06:59:59;14.95;;;7.72;;
77040;SDS011;65974;42.664;23.264;2023-05-10T07:02:25;18.00;;;8.38;;
77040;SDS011;65974;42.664;23.264;2023-05-10T07:04:52;14.18;;;8.77;;
77040;SDS011;65974;42.664;23.264;2023-05-10T07:07:17;17.02;;;9.20;;
77040;SDS011;65974;42.664;23.264;2023-05-10T07:09:43;15.25;;;9.57;;
77040;SDS011;65974;42.664;23.264;2023-05-10T07:12:09;17.67;;;9.63;;
77040;SDS011;65974;42.664;23.264;2023-05-10T07:14:35;16.40;;;8.57;;
77040;SDS011;65974;42.664;23.264;2023-05-10T07:17:00;15.05;;;9.65;;
77040;SDS011;65974;42.664;23.264;2023-05-10T07:19:26;10.13;;;6.13;;
77040;SDS011;65974;42.664;23.264;2023-05-10T07:21:51;22.48;;;8.48;;
77040;SDS011;65974;42.664;23.264;2023-05-10T07:24:17;14.80;;;7.97;;
77040;SDS011;65974;42.664;23.264;2023-05-10T07:26:42;19.27;;;8.55;;
77040;SDS011;65974;42.664;23.264;2023-05-10T07:29:08;16.58;;;8.95;;
77040;SDS011;65974;42.664;23.264;2023-05-10T07:31:33;15.82;;;7.65;;
77040;SDS011;65974;42.664;23.264;2023-05-10T07:33:59;16.60;;;9.18;;
77040;SDS011;65974;42.664;23.264;2023-05-10T07:36:24;16.58;;;10.15;;
77040;SDS011;65974;42.664;23.264;2023-05-10T07:38:50;17.10;;;8.25;;
77040;SDS011;65974;42.664;23.264;2023-05-10T07:41:16;17.25;;;9.20;;
77040;SDS011;65974;42.664;23.264;2023-05-10T07:43:41;14.57;;;7.68;;
77040;SDS011;65974;42.664;23.264;2023-05-10T07:46:06;11.73;;;8.45;;
77040;SDS011;65974;42.664;23.264;2023-05-10T07:48:32;20.13;;;10.15;;
77040;SDS011;65974;42.664;23.264;2023-05-10T07:50:57;11.43;;;7.20;;
77040;SDS011;65974;42.664;23.264;2023-05-10T07:53:23;15.27;;;9.18;;
77040;SDS011;65974;42.664;23.264;2023-05-10T07:55:52;14.95;;;8.23;;
77040;SDS011;65974;42.664;23.264;2023-05-10T07:58:22;10.30;;;5.82;;
77040;SDS011;65974;42.664;23.264;2023-05-10T08:00:48;15.50;;;8.32;;
77040;SDS011;65974;42.664;23.264;2023-05-10T08:03:14;18.67;;;9.18;;
77040;SDS011;65974;42.664;23.264;2023-05-10T08:05:40;20.42;;;9.68;;
77040;SDS011;65974;42.664;23.264;2023-05-10T08:08:05;21.88;;;9.90;;
77040;SDS011;65974;42.664;23.264;2023-05-10T08:10:31;17.15;;;8.60;;
77040;SDS011;65974;42.664;23.264;2023-05-10T08:12:57;15.60;;;8.85;;
77040;SDS011;65974;42.664;23.264;2023-05-10T08:15:23;22.42;;;10.95;;
77040;SDS011;65974;42.664;23.264;2023-05-10T08:17:49;14.50;;;8.85;;
77040;SDS011;65974;42.664;23.264;2023-05-10T08:20:15;13.45;;;7.15;;
77040;SDS011;65974;42.664;23.264;2023-05-10T08:22:43;13.80;;;8.48;;
77040;SDS011;65974;42.664;23.264;2023-05-10T08:25:09;20.42;;;10.45;;
77040;SDS011;65974;42.664;23.264;2023-05-10T08:27:35;14.10;;;8.10;;
77040;SDS011;65974;42.664;23.264;2023-05-10T08:30:00;16.15;;;8.93;;
77040;SDS011;65974;42.664;23.264;2023-05-10T08:32:26;12.30;;;7.15;;
77040;SDS011;65974;42.664;23.264;2023-05-10T08:34:51;16.63;;;10.48;;
77040;SDS011;65974;42.664;23.264;2023-05-10T08:37:17;16.77;;;10.10;;
77040;SDS011;65974;42.664;23.264;2023-05-10T08:39:42;15.55;;;9.23;;
77040;SDS011;65974;42.664;23.264;2023-05-10T08:42:07;16.95;;;10.25;;
77040;SDS011;65974;42.664;23.264;2023-05-10T08:44:35;17.02;;;9.55;;
77040;SDS011;65974;42.664;23.264;2023-05-10T08:47:04;15.48;;;10.07;;
77040;SDS011;65974;42.664;23.264;2023-05-10T08:49:34;18.40;;;10.18;;
77040;SDS011;65974;42.664;23.264;2023-05-10T08:52:01;15.23;;;10.07;;
77040;SDS011;65974;42.664;23.264;2023-05-10T08:54:33;14.80;;;9.07;;
77040;SDS011;65974;42.664;23.264;2023-05-10T08:56:59;17.23;;;8.35;;
77040;SDS011;65974;42.664;23.264;2023-05-10T08:59:25;19.20;;;12.23;;
77040;SDS011;65974;42.664;23.264;2023-05-10T09:01:50;20.45;;;11.32;;
77040;SDS011;65974;42.664;23.264;2023-05-10T09:04:18;23.58;;;11.00;;
77040;SDS011;65974;42.664;23.264;2023-05-10T09:06:44;16.10;;;10.50;;
77040;SDS011;65974;42.664;23.264;2023-05-10T09:09:10;17.98;;;11.43;;
77040;SDS011;65974;42.664;23.264;2023-05-10T09:11:36;17.70;;;10.25;;
77040;SDS011;65974;42.664;23.264;2023-05-10T09:14:01;22.35;;;11.88;;
77040;SDS011;65974;42.664;23.264;2023-05-10T09:16:27;21.67;;;11.18;;
77040;SDS011;65974;42.664;23.264;2023-05-10T09:18:54;16.80;;;11.43;;
77040;SDS011;65974;42.664;23.264;2023-05-10T09:21:20;21.17;;;11.60;;
77040;SDS011;65974;42.664;23.264;2023-05-10T09:23:45;19.08;;;10.85;;
77040;SDS011;65974;42.664;23.264;2023-05-10T09:26:11;19.92;;;10.90;;
77040;SDS011;65974;42.664;23.264;2023-05-10T09:28:53;17.88;;;10.80;;
77040;SDS011;65974;42.664;23.264;2023-05-10T09:31:20;19.10;;;11.10;;
77040;SDS011;65974;42.664;23.264;2023-05-10T09:33:47;19.27;;;10.85;;
77040;SDS011;65974;42.664;23.264;2023-05-10T09:36:15;15.25;;;9.63;;
77040;SDS011;65974;42.664;23.264;2023-05-10T09:38:48;25.98;;;14.20;;
77040;SDS011;65974;42.664;23.264;2023-05-10T09:41:15;16.98;;;9.98;;
77040;SDS011;65974;42.664;23.264;2023-05-10T09:43:45;19.42;;;11.88;;
77040;SDS011;65974;42.664;23.264;2023-05-10T09:46:10;17.27;;;11.00;;
77040;SDS011;65974;42.664;23.264;2023-05-10T09:48:43;21.55;;;10.63;;
77040;SDS011;65974;42.664;23.264;2023-05-10T09:51:10;16.63;;;10.50;;
77040;SDS011;65974;42.664;23.264;2023-05-10T09:53:43;15.55;;;9.80;;
77040;SDS011;65974;42.664;23.264;2023-05-10T09:56:08;17.88;;;10.02;;
77040;SDS011;65974;42.664;23.264;2023-05-10T09:58:35;19.42;;;11.85;;
77040;SDS011;65974;42.664;23.264;2023-05-10T10:01:03;19.45;;;10.73;;
77040;SDS011;65974;42.664;23.264;2023-05-10T10:03:28;18.45;;;10.98;;
77040;SDS011;65974;42.664;23.264;2023-05-10T10:05:55;12.20;;;8.27;;
77040;SDS011;65974;42.664;23.264;2023-05-10T10:08:21;19.23;;;10.95;;
77040;SDS011;65974;42.664;23.264;2023-05-10T10:10:46;18.30;;;11.25;;
77040;SDS011;65974;42.664;23.264;2023-05-10T10:13:13;15.75;;;8.88;;
77040;SDS011;65974;42.664;23.264;2023-05-10T10:15:38;16.45;;;9.90;;
77040;SDS011;65974;42.664;23.264;2023-05-10T10:18:04;15.00;;;8.32;;
77040;SDS011;65974;42.664;23.264;2023-05-10T10:20:30;16.42;;;9.55;;
77040;SDS011;65974;42.664;23.264;2023-05-10T10:22:56;13.85;;;9.43;;
77040;SDS011;65974;42.664;23.264;2023-05-10T10:25:21;17.83;;;11.50;;
77040;SDS011;65974;42.664;23.264;2023-05-10T10:27:49;18.13;;;11.30;;
77040;SDS011;65974;42.664;23.264;2023-05-10T10:36:14;14.68;;;9.13;;
77040;SDS011;65974;42.664;23.264;2023-05-10T10:41:26;17.05;;;10.52;;
77040;SDS011;65974;42.664;23.264;2023-05-10T10:52:23;18.80;;;10.32;;
77040;SDS011;65974;42.664;23.264;2023-05-10T10:55:13;13.43;;;8.85;;
77040;SDS011;65974;42.664;23.264;2023-05-10T11:02:44;17.75;;;10.43;;
77040;SDS011;65974;42.664;23.264;2023-05-10T11:10:32;15.90;;;10.00;;
77040;SDS011;65974;42.664;23.264;2023-05-10T11:13:01;12.45;;;9.20;;
77040;SDS011;65974;42.664;23.264;2023-05-10T11:15:32;17.15;;;9.93;;
77040;SDS011;65974;42.664;23.264;2023-05-10T11:17:59;20.42;;;10.98;;
77040;SDS011;65974;42.664;23.264;2023-05-10T11:20:41;15.55;;;8.90;;
77040;SDS011;65974;42.664;23.264;2023-05-10T11:23:10;15.80;;;9.48;;
77040;SDS011;65974;42.664;23.264;2023-05-10T11:25:41;15.15;;;9.75;;
77040;SDS011;65974;42.664;23.264;2023-05-10T11:28:09;16.20;;;8.75;;
77040;SDS011;65974;42.664;23.264;2023-05-10T11:30:36;17.95;;;11.10;;
77040;SDS011;65974;42.664;23.264;2023-05-10T11:33:03;15.00;;;9.68;;
77040;SDS011;65974;42.664;23.264;2023-05-10T11:35:28;17.33;;;10.07;;
77040;SDS011;65974;42.664;23.264;2023-05-10T11:37:54;13.93;;;9.68;;
77040;SDS011;65974;42.664;23.264;2023-05-10T11:40:21;17.85;;;9.30;;
77040;SDS011;65974;42.664;23.264;2023-05-10T11:42:49;17.30;;;9.68;;
77040;SDS011;65974;42.664;23.264;2023-05-10T11:45:15;17.02;;;10.82;;
77040;SDS011;65974;42.664;23.264;2023-05-10T11:47:41;17.02;;;10.48;;
77040;SDS011;65974;42.664;23.264;2023-05-10T11:50:08;16.45;;;9.65;;
77040;SDS011;65974;42.664;23.264;2023-05-10T11:52:35;17.45;;;9.25;;
77040;SDS011;65974;42.664;23.264;2023-05-10T11:55:04;13.57;;;7.50;;
77040;SDS011;65974;42.664;23.264;2023-05-10T11:57:30;19.85;;;10.43;;
77040;SDS011;65974;42.664;23.264;2023-05-10T11:59:56;21.23;;;10.18;;
77040;SDS011;65974;42.664;23.264;2023-05-10T12:02:22;10.23;;;7.05;;
77040;SDS011;65974;42.664;23.264;2023-05-10T12:04:50;14.43;;;10.27;;
77040;SDS011;65974;42.664;23.264;2023-05-10T12:07:16;13.20;;;9.73;;
77040;SDS011;65974;42.664;23.264;2023-05-10T12:09:48;14.55;;;6.65;;
77040;SDS011;65974;42.664;23.264;2023-05-10T12:12:37;13.45;;;8.70;;
77040;SDS011;65974;42.664;23.264;2023-05-10T12:17:45;15.68;;;9.43;;
77040;SDS011;65974;42.664;23.264;2023-05-10T12:22:40;18.10;;;8.77;;
77040;SDS011;65974;42.664;23.264;2023-05-10T12:25:08;13.27;;;8.13;;
77040;SDS011;65974;42.664;23.264;2023-05-10T12:27:34;15.40;;;10.00;;
77040;SDS011;65974;42.664;23.264;2023-05-10T12:30:00;18.00;;;10.43;;
77040;SDS011;65974;42.664;23.264;2023-05-10T12:32:38;17.92;;;9.85;;
77040;SDS011;65974;42.664;23.264;2023-05-10T12:35:07;15.48;;;10.32;;
77040;SDS011;65974;42.664;23.264;2023-05-10T12:37:33;16.33;;;9.38;;
77040;SDS011;65974;42.664;23.264;2023-05-10T12:40:07;15.35;;;8.57;;
77040;SDS011;65974;42.664;23.264;2023-05-10T12:42:33;14.85;;;8.45;;
77040;SDS011;65974;42.664;23.264;2023-05-10T12:45:00;13.93;;;7.97;;
77040;SDS011;65974;42.664;23.264;2023-05-10T12:47:27;17.73;;;9.45;;
77040;SDS011;65974;42.664;23.264;2023-05-10T12:49:52;21.77;;;11.77;;
77040;SDS011;65974;42.664;23.264;2023-05-10T12:52:18;18.45;;;10.63;;
77040;SDS011;65974;42.664;23.264;2023-05-10T12:54:43;19.17;;;9.63;;
77040;SDS011;65974;42.664;23.264;2023-05-10T12:57:09;10.35;;;6.80;;
77040;SDS011;65974;42.664;23.264;2023-05-10T12:59:34;16.63;;;9.52;;
77040;SDS011;65974;42.664;23.264;2023-05-10T13:01:59;15.93;;;9.65;;
77040;SDS011;65974;42.664;23.264;2023-05-10T13:04:25;19.08;;;9.52;;
77040;SDS011;65974;42.664;23.264;2023-05-10T13:06:50;19.30;;;9.70;;
77040;SDS011;65974;42.664;23.264;2023-05-10T13:09:16;20.90;;;11.45;;
77040;SDS011;65974;42.664;23.264;2023-05-10T13:11:41;14.23;;;9.75;;
77040;SDS011;65974;42.664;23.264;2023-05-10T13:14:07;19.35;;;10.52;;
77040;SDS011;65974;42.664;23.264;2023-05-10T13:16:32;20.48;;;11.02;;
77040;SDS011;65974;42.664;23.264;2023-05-10T13:18:58;19.50;;;10.13;;
77040;SDS011;65974;42.664;23.264;2023-05-10T13:21:23;19.85;;;12.10;;
77040;SDS011;65974;42.664;23.264;2023-05-10T13:23:50;19.33;;;10.90;;
77040;SDS011;65974;42.664;23.264;2023-05-10T13:26:16;17.10;;;8.55;;
77040;SDS011;65974;42.664;23.264;2023-05-10T13:28:41;17.73;;;11.18;;
77040;SDS011;65974;42.664;23.264;2023-05-10T13:31:07;17.88;;;9.05;;
77040;SDS011;65974;42.664;23.264;2023-05-10T13:33:32;16.42;;;10.20;;
77040;SDS011;65974;42.664;23.264;2023-05-10T13:35:58;16.48;;;9.13;;
77040;SDS011;65974;42.664;23.264;2023-05-10T13:38:23;14.45;;;8.60;;
77040;SDS011;65974;42.664;23.264;2023-05-10T13:40:49;18.85;;;10.50;;
77040;SDS011;65974;42.664;23.264;2023-05-10T13:43:17;11.65;;;7.13;;
77040;SDS011;65974;42.664;23.264;2023-05-10T13:45:43;14.40;;;8.90;;
77040;SDS011;65974;42.664;23.264;2023-05-10T13:48:08;15.65;;;9.98;;
77040;SDS011;65974;42.664;23.264;2023-05-10T13:50:34;19.55;;;10.02;;
77040;SDS011;65974;42.664;23.264;2023-05-10T13:52:59;16.40;;;10.02;;
77040;SDS011;65974;42.664;23.264;2023-05-10T13:55:25;13.25;;;7.38;;
77040;SDS011;65974;42.664;23.264;2023-05-10T13:57:50;6.80;;;4.25;;
77040;SDS011;65974;42.664;23.264;2023-05-10T14:00:16;10.88;;;6.82;;
77040;SDS011;65974;42.664;23.264;2023-05-10T14:02:41;17.75;;;9.18;;
77040;SDS011;65974;42.664;23.264;2023-05-10T14:05:07;7.07;;;4.90;;
77040;SDS011;65974;42.664;23.264;2023-05-10T14:07:32;18.23;;;11.25;;
77040;SDS011;65974;42.664;23.264;2023-05-10T14:09:58;15.27;;;8.45;;
77040;SDS011;65974;42.664;23.264;2023-05-10T14:12:23;16.35;;;10.20;;
77040;SDS011;65974;42.664;23.264;2023-05-10T14:14:49;13.35;;;7.15;;
77040;SDS011;65974;42.664;23.264;2023-05-10T14:17:14;13.77;;;9.00;;
77040;SDS011;65974;42.664;23.264;2023-05-10T14:19:40;16.75;;;9.52;;
77040;SDS011;65974;42.664;23.264;2023-05-10T14:22:05;19.38;;;10.10;;
77040;SDS011;65974;42.664;23.264;2023-05-10T14:24:30;16.40;;;8.27;;
77040;SDS011;65974;42.664;23.264;2023-05-10T14:26:56;16.15;;;9.48;;
77040;SDS011;65974;42.664;23.264;2023-05-10T14:29:22;12.63;;;8.15;;
77040;SDS011;65974;42.664;23.264;2023-05-10T14:31:47;15.85;;;9.52;;
77040;SDS011;65974;42.664;23.264;2023-05-10T14:34:13;6.30;;;3.72;;
77040;SDS011;65974;42.664;23.264;2023-05-10T14:36:38;17.17;;;9.80;;
77040;SDS011;65974;42.664;23.264;2023-05-10T14:39:04;14.23;;;6.82;;
77040;SDS011;65974;42.664;23.264;2023-05-10T14:41:29;13.25;;;8.52;;
77040;SDS011;65974;42.664;23.264;2023-05-10T14:43:55;12.30;;;7.05;;
77040;SDS011;65974;42.664;23.264;2023-05-10T14:46:21;12.27;;;7.13;;
77040;SDS011;65974;42.664;23.264;2023-05-10T14:48:46;20.52;;;10.23;;
77040;SDS011;65974;42.664;23.264;2023-05-10T14:51:12;10.30;;;6.50;;
77040;SDS011;65974;42.664;23.264;2023-05-10T14:53:37;17.27;;;11.13;;
77040;SDS011;65974;42.664;23.264;2023-05-10T14:56:02;14.38;;;9.20;;
77040;SDS011;65974;42.664;23.264;2023-05-10T14:58:28;13.70;;;9.30;;
77040;SDS011;65974;42.664;23.264;2023-05-10T15:00:55;19.23;;;11.25;;
77040;SDS011;65974;42.664;23.264;2023-05-10T15:03:21;14.38;;;8.95;;
77040;SDS011;65974;42.664;23.264;2023-05-10T15:05:47;20.25;;;12.60;;
77040;SDS011;65974;42.664;23.264;2023-05-10T15:08:12;19.27;;;9.80;;
77040;SDS011;65974;42.664;23.264;2023-05-10T15:10:38;17.27;;;10.05;;
77040;SDS011;65974;42.664;23.264;2023-05-10T15:13:04;19.98;;;11.38;;
77040;SDS011;65974;42.664;23.264;2023-05-10T15:15:29;10.35;;;6.85;;